Time;durP1;ratioP1;P1;durP2;ratioP2;P2;SDS_P1;SDS_P2;PMS_P1;PMS_P2;Temp;Humidity;BMP_temperature;BMP_pressure;BME280_temperature;BME280_humidity;BME280_pressure;Samples;Min_cycle;Max_cycle;Signal;HPM_P1;HPM_P2
2021/03/03 03:47:49;;;;;;;3.60;1.80;;;;;;;;;;5048889;23;20404;-90
2021/03/03 03:50:14;;;;;;;2.80;1.70;;;;;;;;;;4996655;28;20044;-91
2021/03/03 03:52:40;;;;;;;3.10;1.80;;;;;;;;;;4995777;28;20488;-90
2021/03/03 03:55:06;;;;;;;4.80;2.23;;;;;;;;;;4963427;28;20038;-91
2021/03/03 03:57:39;;;;;;;3.15;1.60;;;;;;;;;;4981648;28;20037;-91
2021/03/03 04:00:06;;;;;;;3.22;1.70;;;;;;;;;;4996268;28;20124;-91
2021/03/03 04:02:31;;;;;;;3.15;1.65;;;;;;;;;;4992442;28;20038;-91
2021/03/03 04:04:56;;;;;;;3.53;1.73;;;;;;;;;;4960439;28;20141;-91
2021/03/03 04:07:22;;;;;;;4.33;2.00;;;;;;;;;;4960331;28;20078;-91
2021/03/03 04:09:47;;;;;;;3.07;1.77;;;;;;;;;;4986013;28;20033;-91
2021/03/03 04:12:13;;;;;;;4.00;2.03;;;;;;;;;;4995836;28;20558;-91
2021/03/03 04:14:38;;;;;;;3.53;1.53;;;;;;;;;;5012429;28;20065;-91
2021/03/03 04:17:03;;;;;;;3.40;1.70;;;;;;;;;;4996011;28;20069;-91
2021/03/03 04:19:29;;;;;;;4.97;1.83;;;;;;;;;;4995912;28;20121;-91
2021/03/03 04:21:54;;;;;;;3.10;1.77;;;;;;;;;;4994881;28;20177;-91
2021/03/03 04:24:19;;;;;;;2.80;1.60;;;;;;;;;;4997487;28;20073;-91
2021/03/03 04:26:45;;;;;;;2.97;1.40;;;;;;;;;;4999828;28;20126;-91
2021/03/03 04:29:10;;;;;;;2.93;1.60;;;;;;;;;;5016071;28;20065;-91
2021/03/03 04:31:35;;;;;;;3.13;1.80;;;;;;;;;;4999973;28;20044;-91
2021/03/03 04:34:01;;;;;;;2.77;1.73;;;;;;;;;;5015517;28;20112;-90
2021/03/03 04:36:26;;;;;;;3.77;1.73;;;;;;;;;;4999583;28;20053;-91
2021/03/03 04:38:51;;;;;;;3.40;1.80;;;;;;;;;;4999297;28;20084;-91
2021/03/03 04:41:17;;;;;;;3.10;1.70;;;;;;;;;;5016157;28;20072;-91
2021/03/03 04:43:42;;;;;;;3.47;1.70;;;;;;;;;;4999255;28;20408;-91
2021/03/03 04:46:07;;;;;;;3.97;2.10;;;;;;;;;;4999720;28;20129;-91
2021/03/03 04:48:33;;;;;;;3.40;1.90;;;;;;;;;;4999185;28;20069;-91
2021/03/03 04:50:58;;;;;;;4.63;2.23;;;;;;;;;;4995694;28;20077;-91
2021/03/03 04:53:24;;;;;;;3.70;1.90;;;;;;;;;;4996326;28;20045;-91
2021/03/03 04:55:49;;;;;;;2.87;1.40;;;;;;;;;;4979775;28;20038;-91
2021/03/03 04:58:14;;;;;;;3.27;1.83;;;;;;;;;;4979646;28;20084;-90
2021/03/03 05:00:40;;;;;;;3.67;2.07;;;;;;;;;;4979182;28;20030;-91
2021/03/03 05:03:05;;;;;;;2.70;1.73;;;;;;;;;;4998991;28;20057;-91
2021/03/03 05:05:30;;;;;;;2.97;1.60;;;;;;;;;;4999006;28;20030;-91
2021/03/03 05:07:56;;;;;;;4.40;2.30;;;;;;;;;;4999102;28;20037;-91
2021/03/03 05:10:21;;;;;;;3.50;1.50;;;;;;;;;;4998852;28;20189;-91
2021/03/03 05:12:46;;;;;;;3.47;2.00;;;;;;;;;;4998714;28;20133;-91
2021/03/03 05:15:12;;;;;;;4.40;2.07;;;;;;;;;;4998539;28;20045;-91
2021/03/03 05:17:38;;;;;;;3.13;1.87;;;;;;;;;;5031770;28;20030;-90
2021/03/03 05:20:04;;;;;;;3.77;1.90;;;;;;;;;;4998525;28;20040;-91
2021/03/03 05:22:30;;;;;;;;;;;;;;;;;;5011928;28;20040;-91
2021/03/03 05:24:55;;;;;;;2.77;1.63;;;;;;;;;;5014801;28;20000;-91
2021/03/03 05:27:20;;;;;;;4.37;2.03;;;;;;;;;;5014826;28;20485;-91
2021/03/03 05:29:46;;;;;;;3.23;1.80;;;;;;;;;;5015551;28;20116;-91
2021/03/03 05:32:11;;;;;;;4.40;1.90;;;;;;;;;;5014712;28;20145;-90
2021/03/03 05:34:36;;;;;;;3.53;1.80;;;;;;;;;;4998205;28;20133;-90
2021/03/03 05:37:04;;;;;;;3.53;1.83;;;;;;;;;;5012433;28;20034;-91
2021/03/03 05:39:29;;;;;;;3.53;1.90;;;;;;;;;;4998120;28;20034;-89
2021/03/03 05:42:00;;;;;;;4.53;2.10;;;;;;;;;;4998553;28;20133;-90
2021/03/03 05:44:26;;;;;;;4.65;1.90;;;;;;;;;;4994483;28;20085;-90
2021/03/03 05:46:52;;;;;;;3.93;1.93;;;;;;;;;;4962759;28;20030;-90
2021/03/03 05:49:17;;;;;;;4.40;1.90;;;;;;;;;;4997773;28;20046;-90
2021/03/03 05:51:43;;;;;;;3.60;2.03;;;;;;;;;;4998032;28;20120;-88
2021/03/03 05:54:08;;;;;;;3.17;1.90;;;;;;;;;;4999342;28;20068;-88
2021/03/03 05:56:33;;;;;;;4.23;2.30;;;;;;;;;;4998476;28;20068;-90
2021/03/03 05:58:59;;;;;;;6.57;2.00;;;;;;;;;;5013967;28;20068;-90
2021/03/03 06:01:24;;;;;;;2.90;1.83;;;;;;;;;;4997653;28;20124;-89
2021/03/03 06:03:49;;;;;;;4.13;2.20;;;;;;;;;;4997749;28;20106;-89
2021/03/03 06:06:15;;;;;;;3.57;1.93;;;;;;;;;;5013299;28;20034;-89
2021/03/03 06:08:40;;;;;;;4.23;1.80;;;;;;;;;;4996252;28;20034;-89
2021/03/03 06:11:06;;;;;;;5.10;2.10;;;;;;;;;;4997835;28;20030;-89
2021/03/03 06:13:31;;;;;;;3.33;1.73;;;;;;;;;;4981108;28;20383;-90
2021/03/03 06:15:57;;;;;;;4.33;1.87;;;;;;;;;;4997704;28;20038;-92
2021/03/03 06:18:23;;;;;;;4.60;2.00;;;;;;;;;;4997580;28;20036;-91
2021/03/03 06:20:49;;;;;;;4.27;1.90;;;;;;;;;;4997691;28;20026;-92
2021/03/03 06:23:35;;;;;;;4.07;2.00;;;;;;;;;;4997342;28;20284;-92
2021/03/03 06:26:03;;;;;;;3.25;2.00;;;;;;;;;;4997579;28;20034;-90
2021/03/03 06:28:45;;;;;;;3.05;1.73;;;;;;;;;;5014853;28;20448;-90
2021/03/03 06:31:29;;;;;;;3.45;1.70;;;;;;;;;;4997360;28;20033;-91
2021/03/03 06:34:15;;;;;;;4.45;2.00;;;;;;;;;;4997400;28;20034;-90
2021/03/03 06:36:42;;;;;;;3.63;2.00;;;;;;;;;;4979324;28;20037;-90
2021/03/03 06:39:27;;;;;;;3.28;1.90;;;;;;;;;;4978137;28;20041;-90
2021/03/03 06:41:54;;;;;;;3.22;1.80;;;;;;;;;;4977690;28;20034;-90
2021/03/03 06:44:19;;;;;;;4.10;2.05;;;;;;;;;;4987462;28;20374;-90
2021/03/03 06:47:03;;;;;;;3.80;2.10;;;;;;;;;;4997097;28;20045;-90
2021/03/03 06:49:30;;;;;;;3.80;2.13;;;;;;;;;;4994069;28;20163;-90
2021/03/03 06:51:55;;;;;;;3.15;1.75;;;;;;;;;;4977723;28;20041;-90
2021/03/03 06:54:21;;;;;;;4.03;2.10;;;;;;;;;;4978049;28;20058;-90
2021/03/03 06:56:48;;;;;;;4.18;2.20;;;;;;;;;;4993744;28;20046;-90
2021/03/03 06:59:14;;;;;;;;;;;;;;;;;;4962077;28;20060;-90
2021/03/03 07:01:40;;;;;;;5.60;2.10;;;;;;;;;;4994282;28;19917;-90
2021/03/03 07:04:20;;;;;;;4.30;2.15;;;;;;;;;;4977642;28;20437;-90
2021/03/03 07:06:45;;;;;;;4.95;2.25;;;;;;;;;;4977843;28;20035;-90
2021/03/03 07:09:11;;;;;;;4.03;2.20;;;;;;;;;;4977250;28;20125;-90
2021/03/03 07:11:40;;;;;;;3.90;2.07;;;;;;;;;;4977451;28;20493;-90
2021/03/03 07:14:32;;;;;;;4.38;2.03;;;;;;;;;;4993535;28;20026;-90
2021/03/03 07:17:13;;;;;;;4.70;2.20;;;;;;;;;;4990378;28;20038;-90
2021/03/03 07:19:39;;;;;;;4.63;2.33;;;;;;;;;;4978879;28;20088;-89
2021/03/03 07:22:07;;;;;;;3.28;1.95;;;;;;;;;;4977207;28;20062;-89
2021/03/03 07:24:32;;;;;;;3.88;1.92;;;;;;;;;;4977686;28;20031;-90
2021/03/03 07:26:57;;;;;;;4.17;2.17;;;;;;;;;;4976987;28;20126;-90
2021/03/03 07:29:23;;;;;;;4.30;2.20;;;;;;;;;;4977013;28;20113;-89
2021/03/03 07:31:48;;;;;;;4.73;2.27;;;;;;;;;;4976932;28;20038;-90
2021/03/03 07:34:14;;;;;;;4.43;2.30;;;;;;;;;;4977013;28;20378;-90
2021/03/03 07:36:39;;;;;;;4.47;1.97;;;;;;;;;;4977217;28;20034;-90
2021/03/03 07:39:08;;;;;;;4.67;2.00;;;;;;;;;;4976564;28;20030;-89
2021/03/03 07:41:44;;;;;;;4.05;2.17;;;;;;;;;;4976666;28;20049;-90
2021/03/03 07:44:15;;;;;;;3.42;2.05;;;;;;;;;;4981276;28;20109;-90
2021/03/03 07:46:41;;;;;;;4.25;2.08;;;;;;;;;;4977707;28;20034;-89
2021/03/03 07:49:10;;;;;;;4.70;2.23;;;;;;;;;;4992612;28;20137;-89
2021/03/03 07:51:36;;;;;;;6.15;2.63;;;;;;;;;;4993362;28;20405;-89
2021/03/03 07:54:01;;;;;;;5.27;2.27;;;;;;;;;;4992941;28;20031;-89
2021/03/03 07:56:26;;;;;;;6.13;2.53;;;;;;;;;;4979856;28;20310;-89
2021/03/03 07:58:52;;;;;;;4.20;2.50;;;;;;;;;;4976128;28;20125;-89
2021/03/03 08:01:17;;;;;;;5.27;2.37;;;;;;;;;;4976576;28;20062;-89
2021/03/03 08:03:47;;;;;;;4.87;2.40;;;;;;;;;;4976748;28;20058;-89
2021/03/03 08:06:31;;;;;;;5.47;2.45;;;;;;;;;;4976979;28;20027;-89
2021/03/03 08:09:06;;;;;;;4.82;2.38;;;;;;;;;;4993459;28;20453;-89
2021/03/03 08:11:32;;;;;;;5.57;2.60;;;;;;;;;;4993986;28;20062;-89
2021/03/03 08:13:58;;;;;;;4.50;2.35;;;;;;;;;;4992809;28;20096;-89
2021/03/03 08:16:23;;;;;;;4.40;2.50;;;;;;;;;;4976364;28;20030;-89
2021/03/03 08:18:48;;;;;;;5.90;2.33;;;;;;;;;;4994039;28;20069;-89
2021/03/03 08:21:16;;;;;;;4.60;2.40;;;;;;;;;;5012194;28;20503;-89
2021/03/03 08:23:43;;;;;;;3.97;2.38;;;;;;;;;;5012151;28;20087;-89
2021/03/03 08:26:17;;;;;;;5.07;2.50;;;;;;;;;;5028711;28;20033;-89
2021/03/03 08:28:43;;;;;;;4.82;2.58;;;;;;;;;;5011977;28;20029;-89
2021/03/03 08:31:08;;;;;;;4.73;2.67;;;;;;;;;;5012079;28;20034;-89
2021/03/03 08:33:34;;;;;;;4.40;2.37;;;;;;;;;;5012183;28;20554;-90
2021/03/03 08:35:59;;;;;;;4.68;2.67;;;;;;;;;;4995476;28;20037;-90
2021/03/03 08:38:25;;;;;;;4.77;2.27;;;;;;;;;;4995573;28;20061;-89
2021/03/03 08:40:50;;;;;;;5.83;2.83;;;;;;;;;;4995778;28;20420;-89
2021/03/03 08:43:34;;;;;;;4.93;2.53;;;;;;;;;;5012211;28;20116;-89
2021/03/03 08:46:00;;;;;;;5.03;2.63;;;;;;;;;;4995760;28;20026;-89
2021/03/03 08:48:26;;;;;;;4.50;2.37;;;;;;;;;;4995398;28;20052;-89
2021/03/03 08:50:53;;;;;;;5.57;2.60;;;;;;;;;;4996331;28;20034;-89
2021/03/03 08:53:27;;;;;;;5.20;2.83;;;;;;;;;;5012042;28;20038;-89
2021/03/03 08:55:53;;;;;;;4.32;2.40;;;;;;;;;;4995311;28;20045;-89
2021/03/03 08:58:35;;;;;;;4.97;2.90;;;;;;;;;;4979234;28;20033;-89
2021/03/03 09:01:00;;;;;;;5.63;2.60;;;;;;;;;;5004003;28;20045;-89
2021/03/03 09:03:26;;;;;;;4.83;2.47;;;;;;;;;;4995254;28;20038;-89
2021/03/03 09:05:51;;;;;;;5.83;2.97;;;;;;;;;;5011961;28;20109;-89
2021/03/03 09:08:24;;;;;;;4.97;2.53;;;;;;;;;;4995303;28;20180;-89
2021/03/03 09:10:49;;;;;;;5.15;2.60;;;;;;;;;;4979571;28;20038;-89
2021/03/03 09:13:22;;;;;;;5.57;2.90;;;;;;;;;;4998800;28;20030;-89
2021/03/03 09:16:07;;;;;;;5.18;2.70;;;;;;;;;;4998213;28;20049;-90
2021/03/03 09:18:34;;;;;;;5.28;3.03;;;;;;;;;;5011940;28;20041;-90
2021/03/03 09:21:04;;;;;;;5.43;2.75;;;;;;;;;;4998786;28;20184;-90
2021/03/03 09:23:30;;;;;;;4.93;2.90;;;;;;;;;;5015068;28;20033;-89
2021/03/03 09:25:55;;;;;;;5.43;2.60;;;;;;;;;;5015335;28;20109;-89
2021/03/03 09:28:21;;;;;;;5.00;2.80;;;;;;;;;;4998480;28;20128;-89
2021/03/03 09:30:46;;;;;;;5.47;2.73;;;;;;;;;;4998083;28;20120;-89
2021/03/03 09:33:13;;;;;;;6.37;2.83;;;;;;;;;;4998215;28;20487;-90
2021/03/03 09:35:38;;;;;;;6.18;3.00;;;;;;;;;;4998520;28;20037;-90
2021/03/03 09:38:05;;;;;;;5.83;2.70;;;;;;;;;;4998063;28;20041;-89
2021/03/03 09:40:31;;;;;;;;;;;;;;;;;;4998567;28;20029;-89
2021/03/03 09:42:56;;;;;;;5.22;2.85;;;;;;;;;;5031381;28;19909;-89
2021/03/03 09:45:22;;;;;;;6.50;2.83;;;;;;;;;;4998213;28;20030;-89
2021/03/03 09:47:48;;;;;;;6.10;2.92;;;;;;;;;;5025528;23;20057;-89
2021/03/03 09:50:18;;;;;;;5.70;3.27;;;;;;;;;;5057408;28;20498;-89
2021/03/03 09:52:45;;;;;;;6.80;3.10;;;;;;;;;;5041660;28;20029;-89
2021/03/03 09:55:12;;;;;;;;;;;;;;;;;;5031026;28;20483;-89
2021/03/03 09:57:37;;;;;;;5.22;2.88;;;;;;;;;;5056391;28;19954;-89
2021/03/03 10:00:11;;;;;;;5.40;2.67;;;;;;;;;;5004695;28;20509;-88
2021/03/03 10:02:38;;;;;;;6.47;2.97;;;;;;;;;;5005607;28;20407;-88
2021/03/03 10:05:03;;;;;;;6.07;3.08;;;;;;;;;;5021184;28;20040;-88
2021/03/03 10:07:29;;;;;;;5.93;3.30;;;;;;;;;;5004360;28;20025;-88
2021/03/03 10:09:58;;;;;;;5.97;3.27;;;;;;;;;;5037263;28;20123;-88
2021/03/03 10:12:33;;;;;;;4.78;2.90;;;;;;;;;;5037430;28;20047;-88
2021/03/03 10:15:05;;;;;;;6.38;3.47;;;;;;;;;;5004908;28;20071;-89
2021/03/03 10:17:35;;;;;;;6.45;3.10;;;;;;;;;;4992160;28;20028;-88
2021/03/03 10:20:01;;;;;;;6.25;3.10;;;;;;;;;;5037205;28;20047;-88
2021/03/03 10:22:27;;;;;;;5.73;2.97;;;;;;;;;;5020191;28;20458;-88
2021/03/03 10:24:59;;;;;;;5.63;3.30;;;;;;;;;;5004398;28;20033;-88
2021/03/03 10:27:25;;;;;;;6.03;3.28;;;;;;;;;;5020625;28;20143;-89
2021/03/03 10:29:51;;;;;;;6.27;3.33;;;;;;;;;;5003837;28;20048;-88
2021/03/03 10:32:16;;;;;;;6.57;3.13;;;;;;;;;;5004015;28;20031;-88
2021/03/03 10:34:42;;;;;;;6.13;3.20;;;;;;;;;;5003831;28;20119;-88
2021/03/03 10:37:07;;;;;;;6.03;3.00;;;;;;;;;;5003891;28;20025;-89
2021/03/03 10:39:34;;;;;;;5.50;3.13;;;;;;;;;;5000528;28;20524;-88
2021/03/03 10:42:00;;;;;;;5.82;3.13;;;;;;;;;;5020383;28;20036;-88
2021/03/03 10:44:42;;;;;;;5.47;3.00;;;;;;;;;;5003940;28;20063;-89
2021/03/03 10:47:08;;;;;;;6.18;3.50;;;;;;;;;;5005294;28;20029;-88
2021/03/03 10:49:38;;;;;;;5.57;3.00;;;;;;;;;;5003670;28;20124;-89
2021/03/03 10:52:16;;;;;;;5.47;2.92;;;;;;;;;;5021253;28;20488;-88
2021/03/03 10:54:41;;;;;;;5.85;2.90;;;;;;;;;;5019897;28;20045;-88
2021/03/03 10:57:08;;;;;;;5.70;3.30;;;;;;;;;;5019754;28;20555;-88
2021/03/03 10:59:34;;;;;;;5.65;2.97;;;;;;;;;;5020294;28;20496;-89
2021/03/03 11:02:01;;;;;;;5.90;3.27;;;;;;;;;;5012261;28;20048;-89
2021/03/03 11:04:46;;;;;;;5.55;3.10;;;;;;;;;;5032954;28;20523;-89
2021/03/03 11:07:15;;;;;;;6.43;3.20;;;;;;;;;;5041974;28;20036;-89
2021/03/03 11:09:40;;;;;;;6.75;3.42;;;;;;;;;;5052110;28;20472;-88
2021/03/03 11:12:06;;;;;;;6.53;3.20;;;;;;;;;;5065343;28;20037;-88
2021/03/03 11:14:32;;;;;;;5.07;2.80;;;;;;;;;;5042623;28;20465;-90
2021/03/03 11:16:58;;;;;;;5.50;3.10;;;;;;;;;;5032636;28;20277;-88
2021/03/03 11:19:24;;;;;;;6.25;3.38;;;;;;;;;;5016124;28;20124;-88
2021/03/03 11:21:50;;;;;;;6.23;3.20;;;;;;;;;;5034816;28;20124;-88
2021/03/03 11:24:16;;;;;;;5.75;3.03;;;;;;;;;;5035279;28;20041;-89
2021/03/03 11:26:42;;;;;;;5.17;3.30;;;;;;;;;;5032638;28;20045;-89
2021/03/03 11:29:08;;;;;;;5.40;3.20;;;;;;;;;;5015860;28;20128;-89
2021/03/03 11:31:34;;;;;;;6.53;3.27;;;;;;;;;;5016081;28;20125;-88
2021/03/03 11:33:59;;;;;;;5.40;2.90;;;;;;;;;;5015167;28;20331;-88
2021/03/03 11:36:24;;;;;;;5.50;3.00;;;;;;;;;;5019566;28;20124;-88
2021/03/03 11:38:50;;;;;;;6.30;3.47;;;;;;;;;;5019076;28;20032;-89
2021/03/03 11:41:15;;;;;;;5.53;3.20;;;;;;;;;;5003320;28;20087;-89
2021/03/03 11:43:40;;;;;;;5.70;3.07;;;;;;;;;;5002765;28;20127;-88
2021/03/03 11:46:06;;;;;;;6.00;3.10;;;;;;;;;;5002850;28;20052;-89
2021/03/03 11:48:31;;;;;;;6.63;3.47;;;;;;;;;;5002520;28;20039;-88
2021/03/03 11:50:57;;;;;;;6.17;3.30;;;;;;;;;;5003011;28;20087;-89
2021/03/03 11:53:22;;;;;;;6.33;3.20;;;;;;;;;;5002749;28;20033;-89
2021/03/03 11:55:47;;;;;;;6.33;3.27;;;;;;;;;;5018715;28;20032;-89
2021/03/03 11:58:13;;;;;;;5.97;3.60;;;;;;;;;;5018939;28;20137;-89
2021/03/03 12:00:38;;;;;;;7.03;3.40;;;;;;;;;;5018939;28;20060;-89
2021/03/03 12:03:03;;;;;;;6.87;3.23;;;;;;;;;;5002552;28;20188;-88
2021/03/03 12:05:29;;;;;;;5.53;3.50;;;;;;;;;;5018755;28;20496;-88
2021/03/03 12:07:54;;;;;;;5.40;3.33;;;;;;;;;;5018689;28;20506;-89
2021/03/03 12:10:20;;;;;;;5.17;3.20;;;;;;;;;;5039061;28;20527;-89
2021/03/03 12:12:45;;;;;;;6.30;3.30;;;;;;;;;;5015401;28;20033;-89
2021/03/03 12:15:11;;;;;;;6.20;3.23;;;;;;;;;;5015873;28;20041;-88
2021/03/03 12:17:36;;;;;;;5.23;3.20;;;;;;;;;;5035565;28;20029;-88
2021/03/03 12:20:03;;;;;;;6.13;3.43;;;;;;;;;;5032163;28;20516;-88
2021/03/03 12:22:28;;;;;;;5.57;3.20;;;;;;;;;;5015628;28;20056;-89
2021/03/03 12:24:54;;;;;;;6.40;3.60;;;;;;;;;;5032015;28;20490;-89
2021/03/03 12:27:19;;;;;;;6.27;3.40;;;;;;;;;;5031886;28;20132;-89
2021/03/03 12:29:44;;;;;;;5.60;3.50;;;;;;;;;;5031539;28;20124;-89
2021/03/03 12:32:10;;;;;;;5.43;3.20;;;;;;;;;;5015330;28;20029;-89
2021/03/03 12:34:35;;;;;;;6.00;3.27;;;;;;;;;;5031938;28;20073;-88
2021/03/03 12:37:01;;;;;;;5.60;3.30;;;;;;;;;;5041749;28;20056;-89
2021/03/03 12:39:26;;;;;;;6.60;3.27;;;;;;;;;;5014017;28;20459;-89
2021/03/03 12:41:52;;;;;;;6.63;3.33;;;;;;;;;;5014254;28;20032;-89
2021/03/03 12:44:17;;;;;;;6.27;3.20;;;;;;;;;;5017729;28;20041;-89
2021/03/03 12:46:42;;;;;;;6.33;3.30;;;;;;;;;;5023403;28;20036;-88
2021/03/03 12:49:08;;;;;;;6.67;3.50;;;;;;;;;;5002894;28;20048;-90
2021/03/03 12:51:33;;;;;;;5.40;3.30;;;;;;;;;;5042237;28;20036;-90
2021/03/03 12:53:59;;;;;;;5.60;3.20;;;;;;;;;;5043172;28;20466;-89
2021/03/03 12:56:24;;;;;;;5.73;3.23;;;;;;;;;;5038424;28;20128;-89
2021/03/03 12:58:49;;;;;;;5.57;3.30;;;;;;;;;;5038336;28;20083;-89
2021/03/03 13:01:15;;;;;;;5.23;3.20;;;;;;;;;;5055203;28;20136;-90
2021/03/03 13:03:43;;;;;;;7.07;3.17;;;;;;;;;;5054706;28;20131;-89
2021/03/03 13:06:10;;;;;;;6.15;3.00;;;;;;;;;;5051896;28;20036;-89
2021/03/03 13:08:35;;;;;;;;;;;;;;;;;;5018867;28;20416;-89
2021/03/03 13:11:00;;;;;;;5.77;3.17;;;;;;;;;;5051829;28;19916;-89
2021/03/03 13:13:26;;;;;;;5.90;3.27;;;;;;;;;;5035172;28;20363;-88
2021/03/03 13:15:51;;;;;;;6.43;3.27;;;;;;;;;;5034909;28;20540;-88
2021/03/03 13:18:17;;;;;;;5.63;3.23;;;;;;;;;;5034954;28;20136;-88
2021/03/03 13:20:42;;;;;;;5.93;3.50;;;;;;;;;;5034705;28;20100;-88
2021/03/03 13:23:07;;;;;;;5.23;3.03;;;;;;;;;;5018340;28;20046;-88
2021/03/03 13:25:33;;;;;;;6.80;3.17;;;;;;;;;;5049431;28;20076;-88
2021/03/03 13:27:58;;;;;;;6.43;3.40;;;;;;;;;;5054588;28;20509;-88
2021/03/03 13:30:23;;;;;;;6.90;3.40;;;;;;;;;;5071146;28;20079;-88
2021/03/03 13:32:49;;;;;;;6.10;3.33;;;;;;;;;;5054535;28;20064;-89
2021/03/03 13:35:14;;;;;;;6.17;3.30;;;;;;;;;;5044677;28;20079;-88
2021/03/03 13:37:40;;;;;;;5.00;2.83;;;;;;;;;;5025988;28;20025;-88
2021/03/03 13:40:06;;;;;;;5.60;3.13;;;;;;;;;;5048978;28;20452;-88
2021/03/03 13:42:31;;;;;;;;;;;;;;;;;;5005330;28;20041;-88
2021/03/03 13:44:57;;;;;;;5.28;2.88;;;;;;;;;;5034626;28;19947;-88
2021/03/03 13:47:22;;;;;;;6.20;3.17;;;;;;;;;;5045449;28;20029;-88
2021/03/03 13:49:47;;;;;;;6.67;3.13;;;;;;;;;;5053923;28;20092;-87
2021/03/03 13:52:13;;;;;;;5.37;2.87;;;;;;;;;;5053973;28;20511;-88
2021/03/03 13:54:38;;;;;;;5.33;2.90;;;;;;;;;;5053539;28;20466;-89
2021/03/03 13:57:06;;;;;;;5.53;3.47;;;;;;;;;;5039155;28;20060;-88
2021/03/03 13:59:31;;;;;;;6.28;3.03;;;;;;;;;;5034973;28;20068;-88
2021/03/03 14:01:56;;;;;;;5.60;3.10;;;;;;;;;;5020811;28;20127;-89
2021/03/03 14:04:22;;;;;;;6.70;3.37;;;;;;;;;;5020746;28;20107;-89
2021/03/03 14:06:47;;;;;;;5.87;2.97;;;;;;;;;;5037416;28;20534;-89
2021/03/03 14:09:12;;;;;;;5.93;3.20;;;;;;;;;;5037068;28;20132;-89
2021/03/03 14:11:38;;;;;;;6.00;3.10;;;;;;;;;;5020581;28;20130;-89
2021/03/03 14:14:03;;;;;;;7.13;3.47;;;;;;;;;;5036976;28;20517;-89
2021/03/03 14:16:28;;;;;;;5.53;3.40;;;;;;;;;;5036912;28;20056;-88
2021/03/03 14:18:54;;;;;;;4.87;3.00;;;;;;;;;;5037088;28;20127;-89
2021/03/03 14:21:19;;;;;;;6.30;3.23;;;;;;;;;;5036819;28;20490;-88
2021/03/03 14:23:45;;;;;;;5.30;3.13;;;;;;;;;;5054260;28;20043;-89
2021/03/03 14:26:11;;;;;;;7.43;3.27;;;;;;;;;;5053489;28;20033;-89
2021/03/03 14:28:36;;;;;;;6.53;3.30;;;;;;;;;;5022535;28;20068;-90
2021/03/03 14:31:01;;;;;;;5.57;3.20;;;;;;;;;;5032546;28;20029;-89
2021/03/03 14:33:27;;;;;;;5.43;3.20;;;;;;;;;;5033690;28;20064;-89
2021/03/03 14:35:52;;;;;;;6.07;3.20;;;;;;;;;;5049945;28;20049;-88
2021/03/03 14:38:22;;;;;;;6.50;3.17;;;;;;;;;;5033136;28;20163;-88
2021/03/03 14:40:48;;;;;;;5.63;3.30;;;;;;;;;;5049219;28;20033;-89
2021/03/03 14:43:13;;;;;;;5.90;3.00;;;;;;;;;;5033379;28;20091;-88
2021/03/03 14:45:39;;;;;;;5.07;2.93;;;;;;;;;;5033551;28;20073;-88
2021/03/03 14:48:05;;;;;;;5.03;3.00;;;;;;;;;;5049534;28;20065;-88
2021/03/03 14:50:30;;;;;;;5.63;3.00;;;;;;;;;;5033096;28;20033;-89
2021/03/03 14:52:55;;;;;;;5.63;3.13;;;;;;;;;;5049788;28;20758;-89
2021/03/03 14:55:21;;;;;;;5.73;3.07;;;;;;;;;;5049674;28;20136;-88
2021/03/03 14:57:46;;;;;;;5.07;2.93;;;;;;;;;;5032809;28;20068;-88
2021/03/03 15:00:12;;;;;;;6.13;3.23;;;;;;;;;;5049491;28;20065;-88
2021/03/03 15:02:37;;;;;;;5.63;3.13;;;;;;;;;;5033089;28;20060;-88
2021/03/03 15:05:04;;;;;;;5.17;3.20;;;;;;;;;;5033088;28;20036;-87
2021/03/03 15:07:29;;;;;;;4.90;2.83;;;;;;;;;;5032718;28;20484;-88
2021/03/03 15:09:54;;;;;;;5.03;3.03;;;;;;;;;;5032743;28;20040;-88
2021/03/03 15:12:20;;;;;;;5.87;3.30;;;;;;;;;;5066135;28;20184;-88
2021/03/03 15:14:45;;;;;;;4.73;2.63;;;;;;;;;;5049421;28;20061;-88
2021/03/03 15:17:10;;;;;;;5.63;3.07;;;;;;;;;;5049396;28;20065;-88
2021/03/03 15:19:36;;;;;;;5.57;3.00;;;;;;;;;;5032515;28;20124;-88
2021/03/03 15:22:01;;;;;;;4.50;2.80;;;;;;;;;;5032737;28;20413;-88
2021/03/03 15:24:27;;;;;;;5.37;2.73;;;;;;;;;;5032494;28;20052;-87
2021/03/03 15:26:52;;;;;;;6.50;3.10;;;;;;;;;;5032591;28;20069;-88
2021/03/03 15:29:17;;;;;;;5.13;3.07;;;;;;;;;;5049206;28;20025;-88
2021/03/03 15:31:43;;;;;;;4.77;2.63;;;;;;;;;;5032428;28;20135;-87
2021/03/03 15:34:08;;;;;;;5.30;2.70;;;;;;;;;;5032474;28;20083;-88
2021/03/03 15:36:34;;;;;;;4.88;2.85;;;;;;;;;;5065457;28;20060;-88
2021/03/03 15:38:59;;;;;;;5.43;3.03;;;;;;;;;;5032398;28;20120;-89
2021/03/03 15:41:24;;;;;;;4.67;2.70;;;;;;;;;;5032344;28;20056;-88
2021/03/03 15:43:50;;;;;;;5.73;2.80;;;;;;;;;;5032309;28;20564;-88
2021/03/03 15:46:15;;;;;;;5.17;2.90;;;;;;;;;;5033957;28;20496;-87
2021/03/03 15:48:40;;;;;;;6.30;3.17;;;;;;;;;;5039857;23;20547;-89
2021/03/03 15:51:06;;;;;;;5.43;2.87;;;;;;;;;;4999585;28;20042;-89
2021/03/03 15:53:31;;;;;;;5.70;3.10;;;;;;;;;;5012532;28;20080;-89
2021/03/03 15:55:57;;;;;;;5.93;2.60;;;;;;;;;;5010443;28;20128;-89
2021/03/03 15:58:22;;;;;;;6.70;3.20;;;;;;;;;;5018729;28;20071;-89
2021/03/03 16:00:47;;;;;;;5.03;2.83;;;;;;;;;;5002922;28;20065;-90
2021/03/03 16:03:13;;;;;;;5.33;2.87;;;;;;;;;;5003075;28;20064;-89
2021/03/03 16:05:38;;;;;;;5.80;2.87;;;;;;;;;;5008545;28;20535;-90
2021/03/03 16:08:03;;;;;;;6.63;3.30;;;;;;;;;;5036187;28;20124;-90
2021/03/03 16:10:29;;;;;;;6.27;3.07;;;;;;;;;;5029834;28;20091;-90
2021/03/03 16:12:56;;;;;;;5.93;2.80;;;;;;;;;;5019744;28;20079;-90
2021/03/03 16:15:21;;;;;;;;;;;;;;;;;;5036625;28;20064;-90
2021/03/03 16:17:46;;;;;;;4.57;2.53;;;;;;;;;;5039057;28;19967;-90
2021/03/03 16:20:12;;;;;;;5.63;2.90;;;;;;;;;;5023927;28;20052;-90
2021/03/03 16:22:37;;;;;;;5.23;2.93;;;;;;;;;;5026436;28;20025;-90
2021/03/03 16:25:07;;;;;;;5.20;2.97;;;;;;;;;;5043169;28;20032;-90
2021/03/03 16:27:33;;;;;;;5.13;2.92;;;;;;;;;;5026881;28;20025;-90
2021/03/03 16:29:59;;;;;;;5.13;2.83;;;;;;;;;;5026577;28;20063;-90
2021/03/03 16:32:26;;;;;;;5.20;2.97;;;;;;;;;;5026624;28;20033;-90
2021/03/03 16:34:52;;;;;;;5.30;3.00;;;;;;;;;;5043306;28;20123;-90
2021/03/03 16:37:17;;;;;;;5.20;2.70;;;;;;;;;;5026736;28;20432;-90
2021/03/03 16:39:42;;;;;;;5.13;2.70;;;;;;;;;;5026327;28;20079;-90
2021/03/03 16:42:09;;;;;;;5.57;2.87;;;;;;;;;;5026408;28;20035;-90
2021/03/03 16:44:34;;;;;;;4.15;2.50;;;;;;;;;;5026474;28;20403;-90
2021/03/03 16:47:00;;;;;;;5.80;2.80;;;;;;;;;;5043557;28;20024;-90
2021/03/03 16:49:25;;;;;;;4.63;2.63;;;;;;;;;;5042472;28;20033;-90
2021/03/03 16:51:51;;;;;;;5.30;3.10;;;;;;;;;;5026142;28;20063;-90
2021/03/03 16:54:16;;;;;;;4.90;3.03;;;;;;;;;;5042828;28;20062;-90
2021/03/03 16:56:41;;;;;;;5.50;3.07;;;;;;;;;;5025880;28;20178;-90
2021/03/03 16:59:07;;;;;;;5.00;2.90;;;;;;;;;;5033890;28;20026;-89
2021/03/03 17:01:33;;;;;;;5.00;3.10;;;;;;;;;;5008228;28;20084;-91
2021/03/03 17:04:03;;;;;;;5.03;2.80;;;;;;;;;;5013613;28;20087;-91
2021/03/03 17:06:29;;;;;;;5.45;2.83;;;;;;;;;;5025417;28;20025;-91
2021/03/03 17:08:54;;;;;;;4.53;2.63;;;;;;;;;;5005681;28;20032;-92
2021/03/03 17:11:19;;;;;;;5.17;2.87;;;;;;;;;;5039215;28;20100;-92
2021/03/03 17:13:45;;;;;;;5.57;2.77;;;;;;;;;;5048222;28;20028;-92
2021/03/03 17:16:35;;;;;;;4.77;2.63;;;;;;;;;;5045160;28;20073;-93
2021/03/03 17:19:01;;;;;;;5.18;2.85;;;;;;;;;;5026174;23;20140;-74
2021/03/03 17:21:30;;;;;;;6.03;2.80;;;;;;;;;;5016154;28;20030;-73
2021/03/03 17:23:55;;;;;;;5.25;2.85;;;;;;;;;;5014656;28;20034;-73
2021/03/03 17:26:21;;;;;;;5.27;2.87;;;;;;;;;;5019835;28;20476;-74
2021/03/03 17:28:46;;;;;;;5.50;2.97;;;;;;;;;;5035958;28;20095;-74
2021/03/03 17:31:11;;;;;;;7.43;3.10;;;;;;;;;;5033378;28;20057;-73
2021/03/03 17:33:37;;;;;;;7.27;2.63;;;;;;;;;;5035041;28;20485;-73
2021/03/03 17:36:03;;;;;;;5.20;2.47;;;;;;;;;;5014535;28;20037;-74
2021/03/03 17:38:28;;;;;;;5.43;2.90;;;;;;;;;;5015651;28;20044;-73
2021/03/03 17:40:53;;;;;;;6.23;3.00;;;;;;;;;;5014503;28;20038;-73
2021/03/03 17:43:19;;;;;;;6.03;2.80;;;;;;;;;;5014384;28;20096;-73
2021/03/03 17:45:44;;;;;;;5.10;2.83;;;;;;;;;;5032025;28;20120;-74
2021/03/03 17:48:10;;;;;;;4.13;2.70;;;;;;;;;;5019170;28;20061;-74
2021/03/03 17:50:35;;;;;;;4.80;2.67;;;;;;;;;;5035192;28;20587;-74
2021/03/03 17:53:00;;;;;;;4.67;2.70;;;;;;;;;;5001143;28;20037;-74
2021/03/03 17:55:27;;;;;;;5.40;2.97;;;;;;;;;;5020879;28;20034;-74
2021/03/03 17:57:53;;;;;;;6.38;2.90;;;;;;;;;;4997404;28;20026;-74
2021/03/03 18:00:19;;;;;;;4.22;2.42;;;;;;;;;;5047306;28;20491;-73
2021/03/03 18:02:44;;;;;;;5.40;2.83;;;;;;;;;;5047297;28;20029;-74
2021/03/03 18:05:11;;;;;;;6.47;2.70;;;;;;;;;;5026226;28;20762;-74
2021/03/03 18:07:36;;;;;;;4.80;2.53;;;;;;;;;;5002495;28;20037;-74
2021/03/03 18:10:03;;;;;;;5.38;2.60;;;;;;;;;;5046916;28;20054;-74
2021/03/03 18:12:30;;;;;;;4.80;2.67;;;;;;;;;;5033498;28;20404;-73
2021/03/03 18:14:55;;;;;;;5.45;2.63;;;;;;;;;;5015499;28;20038;-74
2021/03/03 18:17:21;;;;;;;4.75;2.58;;;;;;;;;;5016067;28;20029;-73
2021/03/03 18:19:46;;;;;;;5.27;2.53;;;;;;;;;;5032653;28;20067;-74
2021/03/03 18:22:11;;;;;;;6.13;2.73;;;;;;;;;;5016992;28;20072;-74
2021/03/03 18:24:37;;;;;;;5.13;2.73;;;;;;;;;;5026896;28;20099;-72
2021/03/03 18:27:02;;;;;;;5.40;2.60;;;;;;;;;;5014786;28;20084;-73
2021/03/03 18:29:28;;;;;;;5.37;2.70;;;;;;;;;;5015592;28;20048;-73